Time;durP1;ratioP1;P1;durP2;ratioP2;P2;SDS_P1;SDS_P2;PMS_P1;PMS_P2;Temp;Humidity;BMP_temperature;BMP_pressure;BME280_temperature;BME280_humidity;BME280_pressure;Samples;Min_cycle;Max_cycle;Signal;HPM_P1;HPM_P2
2023/03/28 00:01:45;;;;;;;5.50;1.40;;;2.30;99.90;;;2.91;100.00;99054.47;5017799;28;20508;-78
2023/03/28 00:04:14;;;;;;;9.17;2.07;;;2.40;99.90;;;2.90;100.00;99057.16;5016812;28;20465;-78
2023/03/28 00:06:46;;;;;;;2.20;1.70;;;2.40;99.90;;;2.87;100.00;99060.81;5017610;28;20956;-78
2023/03/28 00:09:16;;;;;;;1.97;1.50;;;2.40;99.90;;;2.83;100.00;99055.97;5015642;28;20534;-77
2023/03/28 00:11:46;;;;;;;3.37;1.40;;;2.30;99.90;;;2.83;100.00;99066.28;5015001;28;20510;-77
2023/03/28 00:14:15;;;;;;;2.77;1.60;;;2.30;99.90;;;2.80;100.00;99067.34;5016948;28;20467;-77
2023/03/28 00:16:46;;;;;;;1.30;1.10;;;2.20;99.90;;;2.80;100.00;99067.34;5017714;28;20470;-77
2023/03/28 00:19:18;;;;;;;6.93;1.67;;;2.20;99.90;;;2.78;100.00;99069.22;5014934;28;20483;-77
2023/03/28 00:21:51;;;;;;;4.00;1.40;;;2.20;99.90;;;2.73;100.00;99073.06;5016815;28;20462;-78
2023/03/28 00:24:22;;;;;;;4.40;1.60;;;2.20;99.90;;;2.69;100.00;99075.06;5018763;28;20459;-77
2023/03/28 00:26:53;;;;;;;2.27;1.50;;;2.10;99.90;;;2.64;100.00;99079.72;5016954;28;20471;-77
2023/03/28 00:29:24;;;;;;;6.20;1.43;;;2.10;99.90;;;2.58;100.00;99081.94;5014732;28;20477;-77
2023/03/28 00:31:55;;;;;;;1.90;1.70;;;2.10;99.90;;;2.54;100.00;99081.31;5015954;28;20566;-78
2023/03/28 00:34:26;;;;;;;3.60;1.73;;;2.00;99.90;;;2.51;100.00;99078.97;5017551;28;20465;-78
2023/03/28 00:37:01;;;;;;;4.93;1.80;;;2.00;99.90;;;2.52;100.00;99084.03;5017248;28;21045;-78
2023/03/28 00:39:30;;;;;;;15.43;2.20;;;2.00;99.90;;;2.51;100.00;99087.53;5016214;28;20616;-77
2023/03/28 00:42:02;;;;;;;4.20;1.50;;;1.90;99.90;;;2.54;100.00;99082.16;5016757;28;20496;-77
2023/03/28 00:44:46;;;;;;;4.33;1.73;;;1.90;99.90;;;2.55;100.00;99085.56;5017978;28;20507;-77
2023/03/28 00:47:46;;;;;;;7.17;1.30;;;1.90;99.90;;;2.56;100.00;99081.22;5015113;28;20520;-77
2023/03/28 00:50:23;;;;;;;4.13;2.10;;;1.90;99.90;;;2.56;100.00;99083.81;4973882;28;20489;-77
2023/03/28 00:53:02;;;;;;;3.13;1.63;;;1.80;99.90;;;2.50;100.00;99074.72;5016587;28;20513;-78
2023/03/28 00:55:36;;;;;;;8.20;1.50;;;1.80;99.90;;;2.47;100.00;99078.38;5015738;28;20557;-78
2023/03/28 00:58:11;;;;;;;5.47;1.70;;;1.90;99.90;;;2.46;100.00;99074.13;5017383;28;20473;-77
2023/03/28 01:00:45;;;;;;;3.33;1.80;;;1.80;99.90;;;2.39;100.00;99078.13;5018969;28;20590;-77
2023/03/28 01:03:18;;;;;;;3.10;1.40;;;1.70;99.90;;;2.41;100.00;99080.56;5015631;28;21043;-77
2023/03/28 01:05:48;;;;;;;2.70;1.57;;;1.70;99.90;;;2.42;100.00;99077.91;5015915;28;21245;-77
2023/03/28 01:08:24;;;;;;;4.40;1.97;;;1.70;99.90;;;2.42;100.00;99080.47;5017803;28;20510;-77
2023/03/28 01:10:54;;;;;;;2.40;1.53;;;1.70;99.90;;;2.42;100.00;99080.47;5014687;28;20477;-78
2023/03/28 01:13:31;;;;;;;4.23;2.00;;;1.60;99.90;;;2.40;100.00;99084.91;5013533;28;20835;-77
2023/03/28 01:16:03;;;;;;;5.40;1.60;;;1.70;99.90;;;2.38;100.00;99086.78;5016859;28;21174;-77
2023/03/28 01:18:35;;;;;;;1.40;1.30;;;1.70;99.90;;;2.35;100.00;99092.16;5014949;28;20462;-78
2023/03/28 01:22:07;;;;;;;4.70;1.43;;;1.60;99.90;;;2.37;100.00;99092.88;5015158;28;21341;-77
2023/03/28 01:27:39;;;;;;;1.90;1.60;;;1.60;99.90;;;2.29;100.00;99086.63;5022226;28;20592;-78
2023/03/28 01:30:52;;;;;;;9.60;1.77;;;1.70;99.90;;;2.26;100.00;99091.97;5000145;28;21049;-77
2023/03/28 01:34:01;;;;;;;2.00;1.33;;;1.50;99.90;;;2.25;100.00;99096.34;5005261;28;20477;-77
2023/03/28 01:37:08;;;;;;;6.87;2.00;;;1.50;99.90;;;2.17;100.00;99090.06;5000689;28;20586;-77
2023/03/28 01:40:05;;;;;;;1.67;1.30;;;1.50;99.90;;;2.11;100.00;99093.09;4998625;28;20491;-78
2023/03/28 01:42:53;;;;;;;1.67;1.37;;;1.50;99.90;;;2.07;100.00;99095.06;4988836;28;20901;-78
2023/03/28 01:45:35;;;;;;;1.37;1.27;;;1.50;99.90;;;2.06;100.00;99097.72;5005218;28;20566;-77
2023/03/28 01:48:14;;;;;;;3.87;1.57;;;1.50;99.90;;;2.01;100.00;99087.75;4991922;28;20497;-77
2023/03/28 01:50:51;;;;;;;1.67;1.33;;;1.50;99.90;;;2.02;100.00;99089.38;5008059;28;20590;-77
2023/03/28 01:53:33;;;;;;;3.03;1.40;;;1.40;99.90;;;2.03;100.00;99097.03;5001192;28;20526;-77
2023/03/28 01:56:11;;;;;;;4.87;1.40;;;1.50;99.90;;;2.00;100.00;99094.66;4999002;28;20501;-77
2023/03/28 01:58:50;;;;;;;2.20;1.43;;;1.40;99.90;;;1.98;100.00;99093.09;4997573;28;20909;-77
2023/03/28 02:01:25;;;;;;;1.33;1.00;;;1.40;99.90;;;1.99;100.00;99090.44;4998436;28;20464;-78
2023/03/28 02:04:01;;;;;;;2.40;1.73;;;1.40;99.90;;;1.96;100.00;99094.97;4997519;28;20475;-77
2023/03/28 02:06:34;;;;;;;2.10;1.67;;;1.30;99.90;;;1.92;100.00;99090.94;4999687;28;21431;-77
2023/03/28 02:09:08;;;;;;;2.97;1.60;;;1.20;99.90;;;1.87;100.00;99082.72;4998441;28;20988;-77
2023/03/28 02:11:40;;;;;;;2.03;1.30;;;1.40;99.90;;;1.87;100.00;99090.47;5001379;28;20505;-77
2023/03/28 02:14:17;;;;;;;1.17;1.00;;;1.30;99.90;;;1.87;100.00;99090.47;4992668;28;20470;-77
2023/03/28 02:16:53;;;;;;;1.63;1.53;;;1.40;99.90;;;1.85;100.00;99087.16;4998515;28;20561;-77
2023/03/28 02:19:25;;;;;;;2.63;1.40;;;1.30;99.90;;;1.81;100.00;99086.53;4998577;28;20504;-78
2023/03/28 02:22:04;;;;;;;5.67;1.33;;;1.30;99.90;;;1.78;100.00;99081.59;4998069;28;20524;-77
2023/03/28 02:24:35;;;;;;;2.33;1.40;;;1.30;99.90;;;1.73;100.00;99077.72;5000522;28;20466;-77
2023/03/28 02:27:07;;;;;;;4.10;1.80;;;1.30;99.90;;;1.74;100.00;99072.44;4998484;28;20489;-77
2023/03/28 02:29:37;;;;;;;1.83;1.73;;;1.20;99.90;;;1.71;100.00;99064.91;5003883;28;21258;-77
2023/03/28 02:32:08;;;;;;;4.10;1.43;;;1.20;99.90;;;1.68;100.00;99072.03;4992041;28;20538;-77
2023/03/28 02:34:38;;;;;;;1.77;1.43;;;1.10;99.90;;;1.69;100.00;99065.97;5006275;28;20478;-77
2023/03/28 02:37:23;;;;;;;2.10;1.40;;;1.10;99.90;;;1.67;100.00;99062.66;4999415;28;20588;-78
2023/03/28 02:40:30;;;;;;;2.17;1.23;;;1.10;99.90;;;1.68;100.00;99062.56;4983338;28;20545;-77
2023/03/28 02:43:55;;;;;;;1.47;1.37;;;1.00;99.90;;;1.66;100.00;99058.44;4980207;28;20471;-78
2023/03/28 02:46:31;;;;;;;2.50;1.40;;;1.10;99.90;;;1.63;100.00;99066.38;4972958;28;20558;-78
2023/03/28 02:49:44;;;;;;;1.97;1.40;;;1.10;99.90;;;1.61;100.00;99063.06;4987781;28;20473;-77
2023/03/28 02:52:35;;;;;;;2.83;1.63;;;1.00;99.90;;;1.61;100.00;99063.91;4983077;28;20489;-78
2023/03/28 02:55:18;;;;;;;5.60;1.33;;;1.00;99.90;;;1.61;100.00;99065.66;4978493;28;20566;-77
2023/03/28 02:57:56;;;;;;;2.70;1.53;;;1.00;99.90;;;1.62;100.00;99057.81;4977176;28;20493;-77
2023/03/28 03:00:26;;;;;;;4.13;1.60;;;0.90;99.90;;;1.62;100.00;99062.97;4992078;28;20490;-77
2023/03/28 03:02:56;;;;;;;3.83;1.73;;;0.90;99.90;;;1.62;100.00;99062.97;4984024;28;20998;-78
2023/03/28 03:05:26;;;;;;;2.77;1.70;;;0.90;99.90;;;1.63;100.00;99061.22;4992928;28;20477;-78
2023/03/28 03:07:55;;;;;;;5.00;1.40;;;0.90;99.90;;;1.63;100.00;99062.06;4986700;28;20465;-77
2023/03/28 03:10:27;;;;;;;1.67;1.30;;;0.90;99.90;;;1.60;100.00;99051.13;4984109;28;20475;-78
2023/03/28 03:12:57;;;;;;;6.93;1.33;;;0.90;99.90;;;1.57;100.00;99048.75;4994388;28;20574;-77
2023/03/28 03:15:29;;;;;;;1.90;1.40;;;0.90;99.90;;;1.56;100.00;99052.28;4986592;28;20474;-77
2023/03/28 03:18:01;;;;;;;4.33;1.60;;;0.90;99.90;;;1.54;100.00;99052.38;4982880;28;20890;-77
2023/03/28 03:20:32;;;;;;;6.90;1.60;;;0.90;99.90;;;1.53;100.00;99053.28;4982967;28;21090;-77
2023/03/28 03:23:03;;;;;;;2.10;1.40;;;0.80;99.90;;;1.55;100.00;99055.78;4983013;28;20873;-77
2023/03/28 03:25:35;;;;;;;2.90;1.63;;;0.90;99.90;;;1.54;100.00;99057.53;4984621;28;20505;-77
2023/03/28 03:28:05;;;;;;;5.53;1.70;;;0.90;99.90;;;1.49;100.00;99062.97;5001109;28;20466;-77
2023/03/28 03:30:35;;;;;;;2.70;1.70;;;0.90;99.90;;;1.47;100.00;99070.00;4986689;28;20468;-77
2023/03/28 03:33:09;;;;;;;2.17;1.30;;;0.90;99.90;;;1.46;100.00;99065.78;4988975;28;20499;-77
2023/03/28 03:35:44;;;;;;;2.43;1.63;;;0.80;99.90;;;1.46;100.00;99070.09;4983213;28;21437;-77
2023/03/28 03:38:15;;;;;;;4.17;2.40;;;0.80;99.90;;;1.46;100.00;99068.34;4984023;28;20531;-77
2023/03/28 03:40:46;;;;;;;2.63;1.53;;;0.80;99.90;;;1.45;100.00;99068.47;4975775;28;20467;-77
2023/03/28 03:43:16;;;;;;;1.70;1.60;;;0.80;99.90;;;1.43;100.00;99068.56;4986086;28;20461;-77
2023/03/28 03:45:46;;;;;;;2.97;1.60;;;0.70;99.90;;;1.41;100.00;99067.03;4983476;28;20536;-77
2023/03/28 03:48:16;;;;;;;2.10;1.47;;;0.80;99.90;;;1.41;100.00;99067.84;4984651;28;20469;-77
2023/03/28 03:50:45;;;;;;;1.70;1.60;;;0.70;99.90;;;1.35;100.00;99068.28;4983334;28;21161;-77
2023/03/28 03:53:15;;;;;;;1.60;1.50;;;0.70;99.90;;;1.33;100.00;99075.28;4972560;28;20502;-77
2023/03/28 03:55:47;;;;;;;1.50;1.40;;;0.70;99.90;;;1.33;100.00;99069.28;4983247;28;20980;-77
2023/03/28 03:58:18;;;;;;;3.50;1.33;;;0.60;99.90;;;1.34;100.00;99078.66;4983784;28;20583;-77
2023/03/28 04:00:50;;;;;;;3.90;1.60;;;0.60;99.90;;;1.33;100.00;99082.16;4984270;28;20498;-77
2023/03/28 04:03:20;;;;;;;4.90;2.07;;;0.70;99.90;;;1.30;100.00;99075.47;4981380;28;20464;-77
2023/03/28 04:05:53;;;;;;;1.93;1.40;;;0.80;99.90;;;1.31;100.00;99076.31;4978206;28;21019;-77
2023/03/28 04:08:24;;;;;;;3.00;1.43;;;0.60;99.90;;;1.27;100.00;99082.59;4988825;28;20458;-77
2023/03/28 04:10:55;;;;;;;2.10;1.77;;;0.60;99.90;;;1.25;100.00;99077.53;4974501;28;20458;-78
2023/03/28 04:13:25;;;;;;;1.33;1.23;;;0.60;99.90;;;1.22;100.00;99082.88;4983948;28;20807;-77
2023/03/28 04:15:55;;;;;;;2.70;2.17;;;0.60;99.90;;;1.22;100.00;99088.03;4989719;28;20488;-77
2023/03/28 04:18:25;;;;;;;3.23;1.80;;;0.60;99.90;;;1.19;100.00;99082.28;4980314;28;20538;-77
2023/03/28 04:21:01;;;;;;;1.70;1.47;;;0.50;99.90;;;1.15;100.00;99083.41;4977000;28;20475;-76
2023/03/28 04:23:31;;;;;;;6.17;1.60;;;0.50;99.90;;;1.13;100.00;99088.66;4973615;28;20842;-77
2023/03/28 04:26:07;;;;;;;4.90;1.60;;;0.60;99.90;;;1.14;100.00;99095.47;4976955;28;21310;-77
2023/03/28 04:28:38;;;;;;;2.53;1.63;;;0.50;99.90;;;1.11;100.00;99105.94;4978763;28;20997;-77
2023/03/28 04:31:10;;;;;;;2.80;1.47;;;0.50;99.90;;;1.09;100.00;99104.41;4991594;28;20470;-77
2023/03/28 04:33:40;;;;;;;1.90;1.53;;;0.50;99.90;;;1.03;100.00;99103.09;4987376;28;20499;-77
2023/03/28 04:36:15;;;;;;;1.50;1.30;;;0.50;99.90;;;1.01;100.00;99110.06;4977239;28;20467;-74
2023/03/28 04:38:45;;;;;;;1.50;1.40;;;0.50;99.90;;;1.00;100.00;99113.59;4984658;28;20528;-77
2023/03/28 04:41:17;;;;;;;2.10;1.37;;;0.50;99.90;;;0.98;100.00;99120.56;4978667;28;20470;-77
2023/03/28 04:43:47;;;;;;;2.33;1.40;;;0.40;99.90;;;0.99;100.00;99111.94;4976583;28;20840;-77
2023/03/28 04:46:16;;;;;;;3.10;1.83;;;0.30;99.90;;;0.99;100.00;99117.91;4985709;28;20483;-77
2023/03/28 04:48:47;;;;;;;3.80;2.03;;;0.30;99.90;;;0.96;100.00;99118.09;4978905;28;20486;-77
2023/03/28 04:51:27;;;;;;;2.30;1.80;;;0.30;99.90;;;0.97;100.00;99119.75;4995529;28;20558;-77
2023/03/28 04:53:57;;;;;;;2.50;2.10;;;0.30;99.90;;;0.97;100.00;99118.94;4988373;28;20831;-78
2023/03/28 04:56:28;;;;;;;1.80;1.50;;;0.30;99.90;;;0.97;100.00;99124.88;4983291;28;20515;-78
2023/03/28 04:58:58;;;;;;;2.60;1.40;;;0.30;99.90;;;0.97;100.00;99118.94;4987219;28;20524;-78
2023/03/28 05:01:27;;;;;;;3.40;1.90;;;0.30;99.90;;;0.93;100.00;99126.03;4979428;28;20468;-77
2023/03/28 05:03:57;;;;;;;2.13;1.67;;;0.20;99.90;;;0.94;100.00;99130.25;4979295;28;20892;-78
2023/03/28 05:06:27;;;;;;;2.17;1.80;;;0.20;99.90;;;0.89;100.00;99132.31;4985857;28;20527;-77
2023/03/28 05:08:57;;;;;;;3.40;1.67;;;0.20;99.90;;;0.88;100.00;99132.41;4981665;28;20462;-77
2023/03/28 05:11:29;;;;;;;5.50;2.07;;;0.20;99.90;;;0.85;100.00;99130.84;4980633;28;20462;-78
2023/03/28 05:13:59;;;;;;;2.90;1.60;;;0.20;99.90;;;0.85;100.00;99132.59;4977896;28;20470;-77
2023/03/28 05:16:31;;;;;;;2.13;1.73;;;0.30;99.90;;;0.85;100.00;99130.84;4983058;28;20468;-77
2023/03/28 05:19:02;;;;;;;5.20;2.33;;;0.20;99.90;;;0.85;100.00;99130.84;4988170;28;20502;-77
2023/03/28 05:21:30;;;;;;;3.13;1.73;;;0.20;99.90;;;0.87;100.00;99135.88;4980806;28;20523;-77
2023/03/28 05:24:00;;;;;;;5.90;2.20;;;0.10;99.90;;;0.86;100.00;99136.81;4974675;28;20828;-78
2023/03/28 05:26:31;;;;;;;2.90;1.93;;;0.20;99.90;;;0.85;100.00;99140.31;4978949;28;20485;-77
2023/03/28 05:29:01;;;;;;;4.33;2.27;;;0.10;99.90;;;0.82;100.00;99128.47;4996546;28;20504;-77
2023/03/28 05:31:31;;;;;;;3.47;1.60;;;0.20;99.90;;;0.84;100.00;99133.50;4979322;28;20996;-77
2023/03/28 05:34:01;;;;;;;1.43;1.33;;;0.20;99.90;;;0.83;100.00;99126.72;4978920;28;21007;-77
2023/03/28 05:36:31;;;;;;;4.30;1.60;;;0.20;99.90;;;0.80;100.00;99130.31;4978021;28;20592;-74
2023/03/28 05:39:01;;;;;;;3.30;2.20;;;0.30;99.90;;;0.82;100.00;99130.22;4985414;28;20505;-78
2023/03/28 05:41:33;;;;;;;2.10;1.90;;;0.20;99.90;;;0.81;100.00;99131.13;4988244;28;20470;-77
2023/03/28 05:44:04;;;;;;;5.40;2.00;;;0.10;99.90;;;0.81;100.00;99133.72;4993306;28;20474;-77
2023/03/28 05:46:34;;;;;;;5.20;2.10;;;0.20;99.90;;;0.82;100.00;99136.19;4985614;28;20473;-77
2023/03/28 05:49:05;;;;;;;4.30;2.47;;;0.20;99.90;;;0.84;100.00;99141.22;4975607;28;20587;-77
2023/03/28 05:51:34;;;;;;;5.43;2.60;;;0.20;99.90;;;0.84;100.00;99148.97;4982699;28;21051;-77
2023/03/28 05:54:04;;;;;;;4.03;2.30;;;0.20;99.90;;;0.82;100.00;99145.66;4977124;28;20523;-77
2023/03/28 05:56:36;;;;;;;2.67;2.30;;;0.10;99.90;;;0.82;100.00;99148.25;4983363;28;20466;-77
2023/03/28 05:59:07;;;;;;;8.67;3.27;;;0.20;99.90;;;0.81;100.00;99142.25;4980541;28;21267;-78
2023/03/28 06:01:38;;;;;;;10.43;3.10;;;0.20;99.90;;;0.82;100.00;99148.25;4977956;28;20880;-78
2023/03/28 06:04:11;;;;;;;4.53;1.97;;;0.20;99.90;;;0.80;100.00;99152.69;4978937;28;20986;-77
2023/03/28 06:06:41;;;;;;;1.90;1.80;;;0.20;99.90;;;0.78;100.00;99146.78;4981728;28;20551;-79
2023/03/28 06:09:11;;;;;;;4.60;2.50;;;0.20;99.90;;;0.78;100.00;99145.03;4979103;28;20475;-77
2023/03/28 06:11:42;;;;;;;2.60;2.40;;;0.30;99.90;;;0.81;100.00;99151.72;4978867;28;20526;-77
2023/03/28 06:14:11;;;;;;;2.77;2.30;;;0.20;99.90;;;0.86;100.00;99155.69;4990858;28;20519;-77
2023/03/28 06:16:41;;;;;;;9.27;2.63;;;0.20;99.90;;;0.87;100.00;99159.06;4980363;28;20461;-77
2023/03/28 06:19:11;;;;;;;8.37;2.70;;;0.30;99.90;;;0.90;100.00;99153.72;4984544;28;20489;-77
2023/03/28 06:21:46;;;;;;;4.03;2.10;;;0.30;99.90;;;0.94;100.00;99160.31;4980743;28;20464;-77
2023/03/28 06:24:16;;;;;;;5.37;2.80;;;0.30;99.90;;;0.96;100.00;99166.19;4987522;28;20525;-77
2023/03/28 06:26:47;;;;;;;3.07;2.23;;;0.30;99.90;;;0.98;100.00;99162.59;4987980;28;20473;-78
2023/03/28 06:29:19;;;;;;;5.43;2.43;;;0.30;99.90;;;1.00;100.00;99159.94;4979070;28;21177;-77
2023/03/28 06:31:49;;;;;;;7.13;2.23;;;0.40;99.90;;;1.00;100.00;99159.94;4981527;28;20493;-77
2023/03/28 06:34:20;;;;;;;2.37;1.90;;;0.40;99.90;;;1.00;100.00;99163.34;4986779;28;20992;-77
2023/03/28 06:36:49;;;;;;;5.47;3.07;;;0.40;99.90;;;1.01;100.00;99170.13;4983125;28;20459;-77
2023/03/28 06:39:18;;;;;;;4.03;2.20;;;0.50;99.90;;;1.00;100.00;99168.47;4993273;28;20501;-78
2023/03/28 06:41:49;;;;;;;2.53;2.30;;;0.40;99.90;;;1.00;100.00;99165.09;4990242;28;20576;-77
2023/03/28 06:44:20;;;;;;;7.13;2.63;;;0.50;99.90;;;0.99;100.00;99169.41;4987665;28;20474;-77
2023/03/28 06:46:49;;;;;;;6.47;2.57;;;0.50;99.90;;;1.02;100.00;99169.19;4987656;28;20475;-77
2023/03/28 06:49:20;;;;;;;3.47;2.63;;;0.50;99.90;;;1.07;100.00;99171.47;4980426;28;20495;-77
2023/03/28 06:51:50;;;;;;;10.10;3.00;;;0.50;99.90;;;1.12;100.00;99174.56;4987999;28;20469;-76
2023/03/28 06:54:20;;;;;;;6.23;2.90;;;0.50;99.90;;;1.15;100.00;99178.69;4987307;28;20596;-77
2023/03/28 06:56:50;;;;;;;3.70;2.07;;;0.60;99.90;;;1.15;100.00;99164.06;4983987;28;20488;-77
2023/03/28 06:59:21;;;;;;;9.93;3.30;;;0.60;99.90;;;1.20;100.00;99164.59;4991245;28;20550;-77
2023/03/28 07:01:50;;;;;;;3.73;2.30;;;0.60;99.90;;;1.23;100.00;99169.53;4993324;28;20478;-77
2023/03/28 07:04:21;;;;;;;5.77;2.60;;;0.60;99.90;;;1.27;100.00;99173.56;4989257;28;20471;-77
2023/03/28 07:06:51;;;;;;;7.40;2.87;;;0.70;99.90;;;1.30;100.00;99172.53;4986630;28;20545;-77
2023/03/28 07:09:20;;;;;;;2.70;1.93;;;0.70;99.90;;;1.33;100.00;99175.75;4991355;28;20471;-77
2023/03/28 07:11:51;;;;;;;13.83;2.60;;;0.70;99.90;;;1.36;100.00;99170.38;4983922;28;20551;-77
2023/03/28 07:14:21;;;;;;;2.77;2.00;;;0.80;99.90;;;1.42;100.00;99171.75;4992096;28;20572;-77
2023/03/28 07:16:52;;;;;;;3.93;2.43;;;0.90;99.90;;;1.42;100.00;99164.00;4994012;28;20999;-77
2023/03/28 07:19:21;;;;;;;3.80;2.50;;;0.90;99.90;;;1.45;100.00;99163.81;4985599;28;20525;-77
2023/03/28 07:21:51;;;;;;;2.60;2.10;;;0.90;99.90;;;1.49;100.00;99163.47;4982664;28;20998;-77
2023/03/28 07:24:22;;;;;;;6.43;2.90;;;0.90;99.90;;;1.55;100.00;99171.75;4980888;28;20562;-77
2023/03/28 07:26:53;;;;;;;6.70;2.50;;;0.90;99.90;;;1.58;100.00;99161.22;4982501;28;20499;-77
2023/03/28 07:29:40;;;;;;;9.00;2.87;;;1.00;99.90;;;1.64;100.00;99165.97;4981509;28;20500;-77
2023/03/28 07:32:11;;;;;;;5.07;2.70;;;1.00;99.90;;;1.67;100.00;99168.31;4979471;28;21093;-77
2023/03/28 07:34:41;;;;;;;11.87;2.67;;;1.10;99.90;;;1.72;100.00;99174.00;4980053;28;20489;-77
2023/03/28 07:37:11;;;;;;;3.63;2.33;;;1.10;99.90;;;1.77;100.00;99179.69;4982295;28;20457;-77
2023/03/28 07:39:42;;;;;;;2.50;2.20;;;1.20;99.90;;;1.81;100.00;99178.53;4989143;28;20506;-77
2023/03/28 07:42:14;;;;;;;8.53;3.10;;;1.20;99.90;;;1.85;100.00;99174.81;4984607;28;20469;-77
2023/03/28 07:44:44;;;;;;;4.27;2.97;;;1.20;99.90;;;1.90;100.00;99188.25;4983438;28;20487;-77
2023/03/28 07:47:17;;;;;;;4.50;2.50;;;1.30;99.90;;;1.94;100.00;99184.53;4985293;28;20478;-78
2023/03/28 07:49:46;;;;;;;3.63;2.73;;;1.40;99.90;;;1.99;100.00;99182.44;4982225;28;20462;-76
2023/03/28 07:52:16;;;;;;;3.47;2.50;;;1.30;99.90;;;2.04;100.00;99185.53;4986065;28;20476;-77
2023/03/28 07:54:46;;;;;;;6.27;3.60;;;1.30;99.90;;;2.09;100.00;99183.44;4980504;28;20498;-77
2023/03/28 07:57:18;;;;;;;4.80;2.53;;;1.40;99.90;;;2.15;100.00;99184.81;4989690;28;20544;-77
2023/03/28 07:59:49;;;;;;;2.50;2.00;;;1.50;99.90;;;2.19;100.00;99184.47;4986683;28;20494;-77
2023/03/28 08:02:19;;;;;;;3.57;2.40;;;1.60;99.90;;;2.23;100.00;99185.91;4981269;28;20463;-77
2023/03/28 08:04:52;;;;;;;7.50;3.23;;;1.70;99.90;;;2.26;100.00;99185.69;4981938;28;20656;-77
2023/03/28 08:07:24;;;;;;;5.43;2.50;;;1.60;99.90;;;2.32;100.00;99187.88;4988399;28;20503;-77
2023/03/28 08:09:53;;;;;;;7.47;2.90;;;1.60;99.90;;;2.37;100.00;99183.19;4983139;28;20491;-77
2023/03/28 08:12:29;;;;;;;13.60;2.87;;;1.80;99.90;;;2.44;100.00;99179.25;4983144;28;20483;-77
2023/03/28 08:14:59;;;;;;;2.53;1.80;;;1.90;99.90;;;2.48;100.00;99185.03;4979655;28;20456;-77
2023/03/28 08:17:29;;;;;;;2.30;1.40;;;2.00;99.90;;;2.54;100.00;99184.56;4993124;28;20475;-77
2023/03/28 08:19:59;;;;;;;3.53;1.67;;;2.10;99.90;;;2.52;100.00;99176.97;4984963;28;20511;-77
2023/03/28 08:22:30;;;;;;;8.37;1.93;;;2.10;99.90;;;2.59;100.00;99173.94;4984691;28;20468;-77
2023/03/28 08:25:00;;;;;;;3.10;1.30;;;2.00;99.90;;;2.64;100.00;99180.41;4980482;28;20587;-77
2023/03/28 08:27:32;;;;;;;4.30;1.60;;;2.10;99.90;;;2.74;100.00;99178.03;4979175;28;20461;-77
2023/03/28 08:30:02;;;;;;;71.40;29.03;;;2.20;99.90;;;2.79;100.00;99184.50;4985019;28;20467;-74
2023/03/28 08:32:33;;;;;;;7.03;3.80;;;2.30;99.90;;;2.84;100.00;99182.41;4986995;28;20468;-77
2023/03/28 08:35:05;;;;;;;14.00;1.90;;;2.40;99.90;;;2.89;100.00;99179.47;4976363;28;20452;-77
2023/03/28 08:37:35;;;;;;;1.87;1.40;;;2.40;99.90;;;2.94;100.00;99183.41;4983469;28;20461;-78
2023/03/28 08:40:09;;;;;;;7.60;1.60;;;2.50;99.90;;;3.01;100.00;99183.78;4974000;28;20499;-78
2023/03/28 08:43:02;;;;;;;5.77;1.10;;;2.50;99.90;;;3.09;100.00;99176.25;4986267;28;20562;-79
2023/03/28 08:45:48;;;;;;;1.50;1.40;;;2.60;99.90;;;3.16;100.00;99177.47;4978398;28;20489;-79
2023/03/28 08:48:25;;;;;;;5.23;1.50;;;2.60;99.90;;;3.21;100.00;99184.88;4989393;28;20548;-78
2023/03/28 08:51:01;;;;;;;6.17;1.70;;;2.70;99.90;;;3.27;100.00;99177.50;4983431;28;21016;-78
2023/03/28 08:53:38;;;;;;;4.80;2.63;;;2.80;99.90;;;3.32;100.00;99175.41;4976615;28;20640;-79
2023/03/28 08:56:17;;;;;;;6.83;1.77;;;2.90;99.90;;;3.41;100.00;99181.66;4983981;28;20500;-79
2023/03/28 08:59:03;;;;;;;5.37;1.80;;;2.90;99.90;;;3.48;100.00;99177.69;4980447;28;20854;-78
2023/03/28 09:01:34;;;;;;;1.90;1.43;;;3.00;99.90;;;3.54;100.00;99185.78;4975985;28;20470;-79
2023/03/28 09:04:04;;;;;;;14.93;1.83;;;3.00;99.90;;;3.59;100.00;99180.28;4966768;28;20477;-79
2023/03/28 09:06:39;;;;;;;5.33;1.17;;;3.00;99.90;;;3.69;100.00;99172.66;4991520;28;20472;-80
2023/03/28 09:09:37;;;;;;;6.80;1.70;;;3.30;99.90;;;3.77;100.00;99167.72;4985533;28;20491;-79
2023/03/28 09:12:41;;;;;;;4.40;1.40;;;3.30;99.90;;;3.83;100.00;99164.69;4979409;28;20509;-79
2023/03/28 09:15:55;;;;;;;3.87;1.83;;;3.30;99.90;;;3.89;100.00;99164.19;4990238;28;20515;-79
2023/03/28 09:19:02;;;;;;;3.10;1.40;;;3.40;99.90;;;3.97;100.00;99164.44;4982012;28;20471;-79
2023/03/28 09:21:45;;;;;;;2.90;1.77;;;3.50;99.90;;;4.03;100.00;99171.72;4995318;28;20497;-79
2023/03/28 09:24:37;;;;;;;1.53;1.33;;;3.60;99.90;;;4.09;100.00;99160.94;4976367;28;20468;-79
2023/03/28 09:27:20;;;;;;;6.60;2.00;;;3.70;99.90;;;4.14;96.04;99174.31;4983524;28;20556;-79
2023/03/28 09:29:54;;;;;;;1.20;1.07;;;3.80;99.90;;;4.19;95.24;99179.97;4990585;28;20484;-79
2023/03/28 09:32:32;;;;;;;2.43;1.40;;;3.70;99.90;;;4.25;91.90;99161.38;4992504;28;20507;-79
2023/03/28 09:35:13;;;;;;;1.77;1.20;;;3.80;99.90;;;4.30;92.59;99169.63;4985687;28;20512;-79
2023/03/28 09:37:46;;;;;;;3.63;1.00;;;3.80;99.90;;;4.36;92.01;99166.53;4983298;28;20522;-78
2023/03/28 09:40:23;;;;;;;6.80;1.40;;;3.80;99.90;;;4.42;90.94;99167.81;4980616;28;20499;-79
2023/03/28 09:43:10;;;;;;;4.87;1.47;;;3.80;99.90;;;4.51;89.76;99157.53;4990649;28;20459;-79
2023/03/28 09:45:59;;;;;;;1.83;1.60;;;4.00;99.90;;;4.56;89.00;99163.19;4984159;28;20463;-79
2023/03/28 09:48:33;;;;;;;39.50;15.93;;;4.10;99.90;;;4.63;90.41;99162.69;4980826;28;20556;-78
2023/03/28 09:51:06;;;;;;;3.10;2.20;;;4.20;99.90;;;4.68;90.58;99147.63;4988685;28;20475;-79
2023/03/28 09:53:38;;;;;;;5.40;2.60;;;4.10;99.90;;;4.73;90.46;99155.84;4988103;28;20570;-78
2023/03/28 09:56:22;;;;;;;2.87;1.47;;;4.10;99.90;;;4.81;89.96;99146.53;4983654;28;20474;-78
2023/03/28 09:58:55;;;;;;;2.60;1.57;;;4.30;99.90;;;4.88;90.19;99147.69;4979345;28;20600;-78
2023/03/28 10:01:55;;;;;;;5.67;1.43;;;4.40;99.90;;;4.94;89.61;99147.16;4981604;28;20609;-78
2023/03/28 10:04:37;;;;;;;3.13;1.20;;;4.50;99.90;;;5.00;89.55;99140.66;4987511;28;20533;-78
2023/03/28 10:07:35;;;;;;;5.07;1.40;;;4.50;99.90;;;5.09;89.82;99145.09;4989046;28;21339;-78
2023/03/28 10:10:22;;;;;;;1.47;1.10;;;4.60;99.90;;;5.09;87.20;99145.09;5003601;28;20535;-78
2023/03/28 10:12:58;;;;;;;3.60;1.47;;;4.50;99.90;;;5.12;86.35;99144.03;4987207;28;21330;-79
2023/03/28 10:15:35;;;;;;;8.30;1.80;;;4.60;99.90;;;5.18;86.55;99141.75;4981835;28;20476;-78
2023/03/28 10:18:05;;;;;;;5.33;1.70;;;4.70;99.90;;;5.25;86.33;99142.88;4978726;28;20475;-79
2023/03/28 10:20:38;;;;;;;3.60;1.63;;;4.90;99.90;;;5.25;84.65;99140.31;4988205;28;22325;-78
2023/03/28 10:23:12;;;;;;;4.50;1.30;;;4.80;99.70;;;5.29;83.04;99138.28;4985393;28;20456;-78
2023/03/28 10:25:45;;;;;;;3.23;1.53;;;4.80;99.50;;;5.33;83.28;99137.91;4974527;28;21051;-79
2023/03/28 10:28:20;;;;;;;1.93;1.20;;;4.80;99.70;;;5.40;81.96;99133.03;4991617;28;20468;-78
2023/03/28 10:30:56;;;;;;;3.63;2.23;;;4.80;99.10;;;5.42;79.74;99131.94;4974699;28;20476;-78
2023/03/28 10:33:32;;;;;;;7.17;1.43;;;4.90;98.60;;;5.46;79.63;99122.13;4980027;28;20488;-78
2023/03/28 10:36:06;;;;;;;2.27;1.33;;;4.90;98.70;;;5.52;79.43;99129.41;4988575;28;20975;-80
2023/03/28 10:38:47;;;;;;;1.63;1.50;;;5.00;98.60;;;5.61;80.61;99130.41;4993704;28;20502;-78
2023/03/28 10:41:24;;;;;;;1.40;1.27;;;5.10;99.00;;;5.66;81.42;99117.88;4991423;28;20500;-78
2023/03/28 10:43:56;;;;;;;4.93;1.40;;;5.10;99.40;;;5.72;81.80;99118.19;4984660;28;20460;-78
2023/03/28 10:46:32;;;;;;;3.70;1.47;;;5.20;99.60;;;5.76;82.40;99116.94;4978990;28;20510;-78
2023/03/28 10:49:06;;;;;;;3.80;1.63;;;5.20;99.50;;;5.78;80.53;99114.25;4986030;28;21316;-79
2023/03/28 10:51:41;;;;;;;6.93;1.77;;;5.20;98.70;;;5.83;78.56;99112.88;4982580;28;20460;-78
2023/03/28 10:54:38;;;;;;;3.63;1.43;;;5.40;98.40;;;5.89;78.30;99111.59;4981422;28;20541;-79
2023/03/28 10:57:20;;;;;;;1.20;1.10;;;5.40;98.50;;;5.96;78.48;99099.72;4983126;28;20464;-78
2023/03/28 10:59:56;;;;;;;5.07;1.47;;;5.50;98.40;;;5.99;77.75;99102.06;4994879;28;20499;-79
2023/03/28 11:03:14;;;;;;;3.23;1.20;;;5.50;98.10;;;6.04;77.14;99095.50;4985110;28;20599;-78
2023/03/28 11:05:53;;;;;;;2.40;1.50;;;5.50;98.10;;;6.00;75.26;99085.53;4987391;28;20497;-78